Terminal Aerodrome Forecast
Issued by NWS

Current Version | Previous Version | Text Only | Print | Product List | Glossary On
Versions: 1 2 3 4 5 6 7 8 9 10 11 12 13 14
000
FTUS43 KICT 290520
TAFCNU
TAF
KCNU 290520Z 2906/3006 18013KT P6SM BKN300
     FM291100 19013KT 5SM BR BKN006
     FM291700 20017G26KT P6SM BKN300
     FM300000 18013KT P6SM BKN250=

USA.gov is the U.S. government's official web portal to all federal, state and local government web resources and services.